createdAt,value
2022-10-04T00:00:22.790Z,2.92
2022-10-04T00:02:49.034Z,2.90
2022-10-04T00:05:20.110Z,3.20
2022-10-04T00:07:51.176Z,2.67
2022-10-04T00:10:25.096Z,2.83
2022-10-04T00:12:58.187Z,2.65
2022-10-04T00:15:30.416Z,3.15
2022-10-04T00:18:27.442Z,3.00
2022-10-04T00:20:53.373Z,2.40
2022-10-04T00:23:22.305Z,3.00
2022-10-04T00:25:48.100Z,2.97
2022-10-04T00:28:37.058Z,3.75
2022-10-04T00:31:21.609Z,3.22
2022-10-04T00:34:16.399Z,3.25
2022-10-04T00:36:51.442Z,3.90
2022-10-04T00:39:25.594Z,3.17
2022-10-04T00:42:39.267Z,4.18
2022-10-04T00:45:59.155Z,3.03
2022-10-04T00:48:41.684Z,2.70
2022-10-04T00:51:11.737Z,3.00
2022-10-04T00:54:05.207Z,2.67
2022-10-04T00:56:52.451Z,3.05
2022-10-04T00:59:39.197Z,2.90
2022-10-04T01:02:17.527Z,3.20
2022-10-04T01:04:59.660Z,3.22
2022-10-04T01:07:38.925Z,2.72
2022-10-04T01:10:17.761Z,3.10
2022-10-04T01:13:03.842Z,4.15
2022-10-04T01:15:57.315Z,3.72
2022-10-04T01:18:23.024Z,3.30
2022-10-04T01:20:53.740Z,3.63
2022-10-04T01:23:32.502Z,4.25
2022-10-04T01:25:58.606Z,3.72
2022-10-04T01:28:26.147Z,3.25
2022-10-04T01:30:52.806Z,3.63
2022-10-04T01:33:18.778Z,3.63
2022-10-04T01:35:44.594Z,3.78
2022-10-04T01:38:12.147Z,3.33
2022-10-04T01:40:47.779Z,3.25
2022-10-04T01:43:20.693Z,3.78
2022-10-04T01:45:52.744Z,4.20
2022-10-04T01:48:23.684Z,3.92
2022-10-04T01:51:04.944Z,3.85
2022-10-04T01:53:34.088Z,4.40
2022-10-04T01:56:22.902Z,4.07
2022-10-04T01:58:53.644Z,3.75
2022-10-04T02:01:29.913Z,3.75
2022-10-04T02:04:22.094Z,4.55
2022-10-04T02:06:53.432Z,3.97
2022-10-04T02:09:24.388Z,3.42
2022-10-04T02:11:53.415Z,3.38
2022-10-04T02:14:23.856Z,4.75
2022-10-04T02:16:53.104Z,4.10
2022-10-04T02:19:26.793Z,3.97
2022-10-04T02:21:54.730Z,4.32
2022-10-04T02:24:20.918Z,5.15
2022-10-04T02:26:51.305Z,3.70
2022-10-04T02:29:19.779Z,4.15
2022-10-04T02:32:07.935Z,3.38
2022-10-04T02:34:34.394Z,3.92
2022-10-04T02:37:05.105Z,3.20
2022-10-04T02:39:43.364Z,3.90
2022-10-04T02:42:19.704Z,4.03
2022-10-04T02:44:58.414Z,4.10
2022-10-04T02:47:41.645Z,4.80
2022-10-04T02:50:20.261Z,3.42
2022-10-04T02:52:52.772Z,3.50
2022-10-04T02:55:28.921Z,3.78
2022-10-04T02:57:57.665Z,3.92
2022-10-04T03:00:29.501Z,3.65
2022-10-04T03:03:15.294Z,3.83
2022-10-04T03:05:44.225Z,4.00
2022-10-04T03:08:11.271Z,3.05
2022-10-04T03:10:37.580Z,3.20
2022-10-04T03:13:04.130Z,3.72
2022-10-04T03:15:31.143Z,4.05
2022-10-04T03:17:58.960Z,3.92
2022-10-04T03:20:25.050Z,4.00
2022-10-04T03:22:54.916Z,4.00
2022-10-04T03:25:28.121Z,3.50
2022-10-04T03:27:58.980Z,3.55
2022-10-04T03:30:24.921Z,3.60
2022-10-04T03:32:51.080Z,3.10
2022-10-04T03:35:35.710Z,3.60
2022-10-04T03:38:08.200Z,3.88
2022-10-04T03:40:37.063Z,3.05
2022-10-04T03:43:04.827Z,3.10
2022-10-04T03:45:34.418Z,3.47
2022-10-04T03:48:07.311Z,3.20
2022-10-04T03:50:38.511Z,3.00
2022-10-04T03:53:15.380Z,3.08
2022-10-04T03:55:43.642Z,3.72
2022-10-04T03:58:16.310Z,3.05
2022-10-04T04:00:52.583Z,3.55
2022-10-04T04:03:20.928Z,2.97
2022-10-04T04:05:53.741Z,3.40
2022-10-04T04:08:53.815Z,2.95
2022-10-04T04:11:26.982Z,4.88
2022-10-04T04:14:10.213Z,3.70
2022-10-04T04:16:37.472Z,3.17
2022-10-04T04:19:10.644Z,3.20
2022-10-04T04:21:36.885Z,2.50
2022-10-04T04:24:07.629Z,3.10
2022-10-04T04:26:42.304Z,3.20
2022-10-04T04:29:23.869Z,2.77
2022-10-04T04:31:58.480Z,4.03
2022-10-04T04:34:30.202Z,2.50
2022-10-04T04:37:00.723Z,2.80
2022-10-04T04:39:36.541Z,3.08
2022-10-04T04:42:16.479Z,3.22
2022-10-04T04:44:54.384Z,2.85
2022-10-04T04:47:34.167Z,2.70
2022-10-04T04:50:18.710Z,3.22
2022-10-04T04:52:49.464Z,2.72
2022-10-04T04:55:19.299Z,4.88
2022-10-04T04:57:47.296Z,3.78
2022-10-04T05:00:25.392Z,2.78
2022-10-04T05:03:00.285Z,2.42
2022-10-04T05:05:31.120Z,2.50
2022-10-04T05:08:15.424Z,2.97
2022-10-04T05:11:07.603Z,3.20
2022-10-04T05:13:46.005Z,2.58
2022-10-04T05:16:18.990Z,2.30
2022-10-04T05:18:45.642Z,2.97
2022-10-04T05:21:19.878Z,3.83
2022-10-04T05:23:46.094Z,3.17
2022-10-04T05:26:13.715Z,2.38
2022-10-04T05:28:40.685Z,2.25
2022-10-04T05:31:33.467Z,3.88
2022-10-04T05:33:59.550Z,2.67
2022-10-04T05:36:37.462Z,3.20
2022-10-04T05:39:21.603Z,3.22
2022-10-04T05:42:01.806Z,3.10
2022-10-04T05:44:44.163Z,3.15
2022-10-04T05:47:13.523Z,3.50
2022-10-04T05:49:45.663Z,3.67
2022-10-04T05:52:27.188Z,3.10
2022-10-04T05:55:36.867Z,3.70
2022-10-04T05:58:25.946Z,4.53
2022-10-04T06:01:22.934Z,4.18
2022-10-04T06:03:56.876Z,3.90
2022-10-04T06:06:53.765Z,3.83
2022-10-04T06:09:39.808Z,4.32
2022-10-04T06:15:07.360Z,4.25
2022-10-04T06:17:54.309Z,5.03
2022-10-04T06:20:38.129Z,4.05
2022-10-04T06:23:11.243Z,4.60
2022-10-04T06:26:00.528Z,4.25
2022-10-04T06:28:26.281Z,5.93
2022-10-04T06:31:17.666Z,6.00
2022-10-04T06:33:56.902Z,4.22
2022-10-04T06:36:51.327Z,4.47
2022-10-04T06:39:26.226Z,4.68
2022-10-04T06:42:09.724Z,4.90
2022-10-04T06:44:47.260Z,4.97
2022-10-04T06:47:43.900Z,4.55
2022-10-04T06:50:36.026Z,4.75
2022-10-04T06:53:21.418Z,4.90
2022-10-04T06:56:16.345Z,6.72
2022-10-04T06:59:02.371Z,5.03
2022-10-04T07:01:34.259Z,4.65
2022-10-04T07:05:07.190Z,4.50
2022-10-04T07:07:38.007Z,4.70
2022-10-04T07:10:30.280Z,4.82
2022-10-04T07:13:15.614Z,4.82
2022-10-04T07:15:44.139Z,4.45
2022-10-04T07:18:17.712Z,4.47
2022-10-04T07:20:44.863Z,4.53
2022-10-04T07:23:28.230Z,4.72
2022-10-04T07:25:59.865Z,4.85
2022-10-04T07:28:50.665Z,4.68
2022-10-04T07:31:16.472Z,5.50
2022-10-04T07:33:49.652Z,5.13
2022-10-04T07:36:22.163Z,5.10
2022-10-04T07:38:52.799Z,4.60
2022-10-04T07:41:52.902Z,5.13
2022-10-04T07:44:35.321Z,3.75
2022-10-04T07:47:19.922Z,3.83
2022-10-04T07:49:47.924Z,3.65
2022-10-04T07:52:25.189Z,4.45
2022-10-04T07:55:01.344Z,4.65
2022-10-04T07:57:27.206Z,4.40
2022-10-04T08:00:11.700Z,6.13
2022-10-04T08:02:50.962Z,4.18
2022-10-04T08:05:21.927Z,4.60
2022-10-04T08:07:56.694Z,3.42
2022-10-04T08:10:34.746Z,4.32
2022-10-04T08:13:35.787Z,3.88
2022-10-04T08:16:11.868Z,4.20
2022-10-04T08:19:07.861Z,3.90
2022-10-04T08:22:01.568Z,4.25
2022-10-04T08:24:35.977Z,4.72
2022-10-04T08:27:36.277Z,4.38
2022-10-04T08:30:20.175Z,5.35
2022-10-04T08:33:36.477Z,5.05
2022-10-04T08:36:18.211Z,6.85
2022-10-04T08:38:51.651Z,4.57
2022-10-04T08:41:35.445Z,4.88
2022-10-04T08:44:22.848Z,4.60
2022-10-04T08:47:25.505Z,5.50
2022-10-04T08:50:03.474Z,5.50
2022-10-04T08:53:02.177Z,5.07
2022-10-04T08:55:47.035Z,5.45
2022-10-04T08:59:02.203Z,5.15
2022-10-04T09:02:24.786Z,5.63
2022-10-04T09:05:18.413Z,4.90
2022-10-04T09:07:59.584Z,5.00
2022-10-04T09:10:38.118Z,4.47
2022-10-04T09:13:37.199Z,4.75
2022-10-04T09:16:19.549Z,4.32
2022-10-04T09:19:26.820Z,4.22
2022-10-04T09:21:55.283Z,4.32
2022-10-04T09:25:11.037Z,4.10
2022-10-04T09:27:55.065Z,4.38
2022-10-04T09:30:37.382Z,4.15
2022-10-04T09:33:15.038Z,3.92
2022-10-04T09:35:57.667Z,4.07
2022-10-04T09:38:32.444Z,4.40
2022-10-04T09:41:21.092Z,3.88
2022-10-04T09:43:53.619Z,3.67
2022-10-04T09:46:54.470Z,3.38
2022-10-04T09:49:26.706Z,3.33
2022-10-04T09:52:22.800Z,3.30
2022-10-04T09:55:16.889Z,3.40
2022-10-04T09:57:47.723Z,2.78
2022-10-04T10:00:21.429Z,3.22
2022-10-04T10:02:56.275Z,2.75
2022-10-04T10:05:59.263Z,2.88
2022-10-04T10:08:40.839Z,3.05
2022-10-04T10:11:38.977Z,2.60
2022-10-04T10:14:32.812Z,1.90
2022-10-04T10:17:26.834Z,2.25
2022-10-04T10:20:08.861Z,2.30
2022-10-04T10:22:46.682Z,2.53
2022-10-04T10:25:46.577Z,2.13
2022-10-04T10:28:24.475Z,2.20
2022-10-04T10:31:10.990Z,2.58
2022-10-04T10:34:04.179Z,2.20
2022-10-04T10:36:51.680Z,2.05
2022-10-04T10:39:36.214Z,2.08
2022-10-04T10:42:27.032Z,1.95
2022-10-04T10:45:16.956Z,2.30
2022-10-04T10:48:08.549Z,1.88
2022-10-04T10:50:57.674Z,2.08
2022-10-04T10:53:54.509Z,1.73
2022-10-04T10:56:49.670Z,2.03
2022-10-04T10:59:36.342Z,1.67
2022-10-04T11:02:48.668Z,2.00
2022-10-04T11:05:33.455Z,1.88
2022-10-04T11:08:29.140Z,1.65
2022-10-04T11:11:13.143Z,1.80
2022-10-04T11:13:59.649Z,1.67
2022-10-04T11:16:56.443Z,1.77
2022-10-04T11:19:54.708Z,1.80
2022-10-04T11:22:51.036Z,1.77
2022-10-04T11:25:58.994Z,1.70
2022-10-04T11:28:55.977Z,1.35
2022-10-04T11:31:45.072Z,1.98
2022-10-04T11:34:29.484Z,2.25
2022-10-04T11:37:01.997Z,1.42
2022-10-04T11:39:55.578Z,1.58
2022-10-04T11:43:12.378Z,1.70
2022-10-04T11:48:10.516Z,1.67
2022-10-04T11:51:02.443Z,1.80
2022-10-04T11:53:57.525Z,1.90
2022-10-04T11:56:43.286Z,1.60
2022-10-04T11:59:28.155Z,1.55
2022-10-04T12:02:15.702Z,1.20
2022-10-04T12:05:16.815Z,1.20
2022-10-04T12:08:05.320Z,1.25
2022-10-04T12:10:37.871Z,1.45
2022-10-04T12:13:06.325Z,0.88
2022-10-04T12:15:44.280Z,0.95
2022-10-04T12:18:11.548Z,1.10
2022-10-04T12:21:15.385Z,1.40
2022-10-04T12:23:44.304Z,1.05
2022-10-04T12:26:22.089Z,1.27
2022-10-04T12:29:21.233Z,1.10
2022-10-04T12:32:31.926Z,1.10
2022-10-04T12:35:21.640Z,1.02
2022-10-04T12:38:21.530Z,1.42
2022-10-04T12:41:28.073Z,1.45
2022-10-04T12:44:02.190Z,1.38
2022-10-04T12:47:05.177Z,1.10
2022-10-04T12:49:59.714Z,0.98
2022-10-04T12:52:32.165Z,0.88
2022-10-04T12:55:37.277Z,1.40
2022-10-04T12:58:09.869Z,1.10
2022-10-04T13:00:42.361Z,1.15
2022-10-04T13:03:43.154Z,1.80
2022-10-04T13:06:32.399Z,1.05
2022-10-04T13:09:04.279Z,1.00
2022-10-04T13:11:56.601Z,1.17
2022-10-04T13:14:33.660Z,1.30
2022-10-04T13:17:28.227Z,0.95
2022-10-04T13:20:25.327Z,1.30
2022-10-04T13:23:20.842Z,2.08
2022-10-04T13:28:41.593Z,1.23
2022-10-04T13:31:32.424Z,1.30
2022-10-04T13:34:40.493Z,1.33
2022-10-04T13:37:27.823Z,1.50
2022-10-04T13:40:13.832Z,1.67
2022-10-04T13:42:58.377Z,0.98
2022-10-04T13:45:49.324Z,2.53
2022-10-04T13:48:27.159Z,1.27
2022-10-04T13:51:34.558Z,1.42
2022-10-04T13:54:53.346Z,1.50
2022-10-04T13:57:29.900Z,1.40
2022-10-04T14:00:04.585Z,2.05
2022-10-04T14:03:07.287Z,1.15
2022-10-04T14:05:37.130Z,1.05
2022-10-04T14:08:37.862Z,1.42
2022-10-04T14:11:24.455Z,1.05
2022-10-04T14:14:19.333Z,1.25
2022-10-04T14:17:06.727Z,1.80
2022-10-04T14:20:10.083Z,1.80
2022-10-04T14:22:45.570Z,1.30
2022-10-04T14:25:20.291Z,1.40
2022-10-04T14:28:00.372Z,1.40
2022-10-04T14:31:03.382Z,1.80
2022-10-04T14:33:38.384Z,1.83
2022-10-04T14:36:19.163Z,1.73
2022-10-04T14:38:53.954Z,1.60
2022-10-04T14:41:44.693Z,1.40
2022-10-04T14:44:27.527Z,1.58
2022-10-04T14:47:17.877Z,1.65
2022-10-04T14:50:04.717Z,1.83
2022-10-04T14:52:44.075Z,1.45
2022-10-04T14:55:34.162Z,1.73
2022-10-04T14:58:17.212Z,2.28
2022-10-04T15:00:59.326Z,1.80
2022-10-04T15:03:29.159Z,1.83
2022-10-04T15:06:11.028Z,1.63
2022-10-04T15:08:55.030Z,2.00
2022-10-04T15:11:42.349Z,1.70
2022-10-04T15:14:26.680Z,1.77
2022-10-04T15:16:58.130Z,1.95
2022-10-04T15:19:32.130Z,2.10
2022-10-04T15:22:23.298Z,1.70
2022-10-04T15:24:51.414Z,2.20
2022-10-04T15:27:29.091Z,2.28
2022-10-04T15:30:16.287Z,1.70
2022-10-04T15:33:06.663Z,2.20
2022-10-04T15:35:53.294Z,1.80
2022-10-04T15:38:34.204Z,2.33
2022-10-04T15:41:04.209Z,2.00
2022-10-04T15:43:43.912Z,2.03
2022-10-04T15:46:28.689Z,2.28
2022-10-04T15:49:30.279Z,2.50
2022-10-04T15:52:40.783Z,2.55
2022-10-04T15:55:37.332Z,2.10
2022-10-04T15:58:19.188Z,2.50
2022-10-04T16:00:59.222Z,3.15
2022-10-04T16:03:33.967Z,1.90
2022-10-04T16:06:27.203Z,2.50
2022-10-04T16:09:14.890Z,2.60
2022-10-04T16:11:57.460Z,2.50
2022-10-04T16:14:37.252Z,2.17
2022-10-04T16:17:35.471Z,2.45
2022-10-04T16:20:33.550Z,2.40
2022-10-04T16:23:23.752Z,3.15
2022-10-04T16:25:51.887Z,2.10
2022-10-04T16:28:26.260Z,3.90
2022-10-04T16:31:20.165Z,2.60
2022-10-04T16:34:11.196Z,2.85
2022-10-04T16:36:43.600Z,2.80
2022-10-04T16:39:29.442Z,2.42
2022-10-04T16:42:01.291Z,2.75
2022-10-04T16:44:45.933Z,2.40
2022-10-04T16:47:40.181Z,2.55
2022-10-04T16:50:10.988Z,3.55
2022-10-04T16:53:16.764Z,3.33
2022-10-04T16:55:55.525Z,2.80
2022-10-04T16:58:27.477Z,2.45
2022-10-04T17:01:27.950Z,3.05
2022-10-04T17:04:02.960Z,2.90
2022-10-04T17:06:44.131Z,3.05
2022-10-04T17:09:25.434Z,4.18
2022-10-04T17:12:19.217Z,2.90
2022-10-04T17:14:53.937Z,3.00
2022-10-04T17:17:41.741Z,2.88
2022-10-04T17:20:25.792Z,2.78
2022-10-04T17:23:28.323Z,3.67
2022-10-04T17:26:06.606Z,3.45
2022-10-04T17:29:03.250Z,3.70
2022-10-04T17:36:54.119Z,3.30
2022-10-04T17:39:33.333Z,3.58
2022-10-04T17:42:12.483Z,2.80
2022-10-04T17:45:16.914Z,3.10
2022-10-04T17:48:20.041Z,4.15
2022-10-04T17:51:30.940Z,3.70
2022-10-04T17:54:30.485Z,3.50
2022-10-04T17:57:02.554Z,4.78
2022-10-04T17:59:38.043Z,2.85
2022-10-04T18:04:49.754Z,3.25
2022-10-04T18:07:23.698Z,3.15
2022-10-04T18:09:58.106Z,2.80
2022-10-04T18:12:29.339Z,3.20
2022-10-04T18:15:02.816Z,3.95
2022-10-04T18:17:41.270Z,3.15
2022-10-04T18:20:07.485Z,2.80
2022-10-04T18:22:46.024Z,3.42
2022-10-04T18:25:14.217Z,3.33
2022-10-04T18:28:10.791Z,3.05
2022-10-04T18:30:45.567Z,3.10
2022-10-04T18:33:16.602Z,4.05
2022-10-04T18:35:54.492Z,3.38
2022-10-04T18:38:35.631Z,3.20
2022-10-04T18:41:17.013Z,3.38
2022-10-04T18:43:57.023Z,3.50
2022-10-04T18:46:24.306Z,3.55
2022-10-04T18:49:01.562Z,3.55
2022-10-04T18:51:39.995Z,3.53
2022-10-04T18:54:20.836Z,3.20
2022-10-04T18:56:53.233Z,3.70
2022-10-04T19:00:06.578Z,3.13
2022-10-04T19:02:43.225Z,3.17
2022-10-04T19:05:22.780Z,3.90
2022-10-04T19:08:21.007Z,3.35
2022-10-04T19:11:02.228Z,3.90
2022-10-04T19:13:40.974Z,3.45
2022-10-04T19:16:39.220Z,3.95
2022-10-04T19:19:09.679Z,3.58
2022-10-04T19:21:58.401Z,3.53
2022-10-04T19:24:39.178Z,3.83
2022-10-04T19:27:29.412Z,3.53
2022-10-04T19:30:14.345Z,3.88
2022-10-04T19:33:02.650Z,3.83
2022-10-04T19:35:50.243Z,3.58
2022-10-04T19:38:37.897Z,3.35
2022-10-04T19:41:48.212Z,3.70
2022-10-04T19:44:23.365Z,4.15
2022-10-04T19:46:59.920Z,4.07
2022-10-04T19:49:39.763Z,3.47
2022-10-04T19:52:52.605Z,4.20
2022-10-04T19:55:33.818Z,4.13
2022-10-04T19:58:07.840Z,4.28
2022-10-04T20:00:35.096Z,4.50
2022-10-04T20:03:01.007Z,4.45
2022-10-04T20:05:27.513Z,3.50
2022-10-04T20:08:04.506Z,4.45
2022-10-04T20:10:33.028Z,4.45
2022-10-04T20:13:12.597Z,4.47
2022-10-04T20:15:38.417Z,4.05
2022-10-04T20:18:32.177Z,4.68
2022-10-04T20:20:59.261Z,4.22
2022-10-04T20:23:48.817Z,4.40
2022-10-04T20:26:54.388Z,4.35
2022-10-04T20:29:35.850Z,4.60
2022-10-04T20:32:03.471Z,4.78
2022-10-04T20:34:38.519Z,5.10
2022-10-04T20:37:07.532Z,4.22
2022-10-04T20:39:39.423Z,4.38
2022-10-04T20:42:19.099Z,4.78
2022-10-04T20:44:55.031Z,4.10
2022-10-04T20:47:28.215Z,4.47
2022-10-04T20:49:57.145Z,4.53
2022-10-04T20:52:27.882Z,4.28
2022-10-04T20:54:54.438Z,4.82
2022-10-04T20:57:23.225Z,6.35
2022-10-04T20:59:53.945Z,4.10
2022-10-04T21:02:22.203Z,4.60
2022-10-04T21:04:51.550Z,4.82
2022-10-04T21:07:22.632Z,4.75
2022-10-04T21:09:49.398Z,5.32
2022-10-04T21:12:37.486Z,4.13
2022-10-04T21:15:05.665Z,4.07
2022-10-04T21:17:31.451Z,4.95
2022-10-04T21:19:57.499Z,4.13
2022-10-04T21:22:26.075Z,4.45
2022-10-04T21:24:57.682Z,3.90
2022-10-04T21:27:35.070Z,4.47
2022-10-04T21:30:06.202Z,4.28
2022-10-04T21:32:34.644Z,4.55
2022-10-04T21:35:00.841Z,4.90
2022-10-04T21:37:26.614Z,4.22
2022-10-04T21:39:52.408Z,4.03
2022-10-04T21:42:18.258Z,4.43
2022-10-04T21:44:44.310Z,4.20
2022-10-04T21:47:10.479Z,4.85
2022-10-04T21:49:36.559Z,4.50
2022-10-04T21:52:02.663Z,4.43
2022-10-04T21:54:28.580Z,4.85
2022-10-04T21:56:54.325Z,5.03
2022-10-04T21:59:20.757Z,4.68
2022-10-04T22:01:46.653Z,4.85
2022-10-04T22:04:12.447Z,5.22
2022-10-04T22:06:38.509Z,5.43
2022-10-04T22:09:04.427Z,5.15
2022-10-04T22:11:30.340Z,5.00
2022-10-04T22:13:56.133Z,4.47
2022-10-04T22:16:21.976Z,4.80
2022-10-04T22:18:47.853Z,4.72
2022-10-04T22:21:13.767Z,5.00
2022-10-04T22:23:42.510Z,5.35
2022-10-04T22:26:20.360Z,5.10
2022-10-04T22:28:49.453Z,5.63
2022-10-04T22:31:18.445Z,6.05
2022-10-04T22:33:46.393Z,5.32
2022-10-04T22:36:34.945Z,5.45
2022-10-04T22:39:10.178Z,5.85
2022-10-04T22:41:40.908Z,6.00
2022-10-04T22:44:17.251Z,5.97
2022-10-04T22:46:47.484Z,5.72
2022-10-04T22:49:16.492Z,6.10
2022-10-04T22:51:44.261Z,5.15
2022-10-04T22:54:11.921Z,5.82
2022-10-04T22:56:38.335Z,5.90
2022-10-04T22:59:04.440Z,6.60
2022-10-04T23:01:31.107Z,6.13
2022-10-04T23:03:57.570Z,6.35
2022-10-04T23:06:23.365Z,6.28
2022-10-04T23:08:49.134Z,5.68
2022-10-04T23:11:14.902Z,5.88
2022-10-04T23:13:40.774Z,5.95
2022-10-04T23:16:13.517Z,6.72
2022-10-04T23:18:40.209Z,6.10
2022-10-04T23:21:18.868Z,6.85
2022-10-04T23:23:46.169Z,6.32
2022-10-04T23:26:21.404Z,6.75
2022-10-04T23:28:47.199Z,6.93
2022-10-04T23:31:23.115Z,5.93
2022-10-04T23:33:50.684Z,5.65
2022-10-04T23:36:17.236Z,5.85
2022-10-04T23:38:58.244Z,5.85
2022-10-04T23:41:24.750Z,6.60
2022-10-04T23:43:50.841Z,6.47
2022-10-04T23:46:21.063Z,6.50
2022-10-04T23:48:47.472Z,6.10
2022-10-04T23:51:18.009Z,6.75
2022-10-04T23:53:47.365Z,6.40
2022-10-04T23:56:20.816Z,6.43
2022-10-04T23:58:49.065Z,6.93
